Terminal Aerodrome Forecast
Issued by NWS

Current Version | Previous Version | Graphics & Text | Print | Product List | Glossary On
Versions: 1 2 3 4 5 6 7 8 9 10 11 12 13 14 15 16 17
463
FTUS41 KPBZ 252012 AAA
TAFHLG
TAF AMD
KHLG 252012Z 2520/2618 VRB05KT P6SM BKN070
     FM261400 15008KT P6SM VCSH OVC050
     FM261700 17009KT P6SM -SHRA OVC050=

USA.gov is the U.S. government's official web portal to all federal, state and local government web resources and services.